sensor_id;sensor_type;location;lat;lon;timestamp;temperature;humidity
46652;DHT22;32377;52.182;5.398;2023-04-25T00:02:13;6.10;99.90
46652;DHT22;32377;52.182;5.398;2023-04-25T00:04:40;6.00;99.90
46652;DHT22;32377;52.182;5.398;2023-04-25T00:07:05;6.00;99.90
46652;DHT22;32377;52.182;5.398;2023-04-25T00:09:32;6.10;99.90
46652;DHT22;32377;52.182;5.398;2023-04-25T00:11:57;6.10;99.90
46652;DHT22;32377;52.182;5.398;2023-04-25T00:14:23;6.10;99.90
46652;DHT22;32377;52.182;5.398;2023-04-25T00:16:48;6.10;99.90
46652;DHT22;32377;52.182;5.398;2023-04-25T00:19:17;6.10;99.90
46652;DHT22;32377;52.182;5.398;2023-04-25T00:21:42;6.10;99.90
46652;DHT22;32377;52.182;5.398;2023-04-25T00:24:08;6.00;99.90
46652;DHT22;32377;52.182;5.398;2023-04-25T00:26:34;6.10;99.90
46652;DHT22;32377;52.182;5.398;2023-04-25T00:29:01;6.10;99.90
46652;DHT22;32377;52.182;5.398;2023-04-25T00:31:26;6.20;99.90
46652;DHT22;32377;52.182;5.398;2023-04-25T00:33:52;6.10;99.90
46652;DHT22;32377;52.182;5.398;2023-04-25T00:36:18;6.10;99.90
46652;DHT22;32377;52.182;5.398;2023-04-25T00:38:44;6.00;99.90
46652;DHT22;32377;52.182;5.398;2023-04-25T00:41:10;6.00;99.90
46652;DHT22;32377;52.182;5.398;2023-04-25T00:43:36;5.90;99.90
46652;DHT22;32377;52.182;5.398;2023-04-25T00:46:02;5.90;99.90
46652;DHT22;32377;52.182;5.398;2023-04-25T00:48:28;5.90;99.90
46652;DHT22;32377;52.182;5.398;2023-04-25T00:50:55;6.00;99.90
46652;DHT22;32377;52.182;5.398;2023-04-25T00:53:23;5.90;99.90
46652;DHT22;32377;52.182;5.398;2023-04-25T00:55:50;5.90;99.90
46652;DHT22;32377;52.182;5.398;2023-04-25T00:58:19;6.00;99.90
46652;DHT22;32377;52.182;5.398;2023-04-25T01:00:46;5.90;99.90
46652;DHT22;32377;52.182;5.398;2023-04-25T01:03:13;5.90;99.90
46652;DHT22;32377;52.182;5.398;2023-04-25T01:05:40;5.90;99.90
46652;DHT22;32377;52.182;5.398;2023-04-25T01:08:06;5.80;99.90
46652;DHT22;32377;52.182;5.398;2023-04-25T01:10:32;5.80;99.90
46652;DHT22;32377;52.182;5.398;2023-04-25T01:12:58;5.80;99.90
46652;DHT22;32377;52.182;5.398;2023-04-25T01:15:24;5.80;99.90
46652;DHT22;32377;52.182;5.398;2023-04-25T01:17:49;5.70;99.90
46652;DHT22;32377;52.182;5.398;2023-04-25T01:20:15;5.70;99.90
46652;DHT22;32377;52.182;5.398;2023-04-25T01:22:42;5.70;99.90
46652;DHT22;32377;52.182;5.398;2023-04-25T01:25:07;5.60;99.90
46652;DHT22;32377;52.182;5.398;2023-04-25T01:27:33;5.50;99.90
46652;DHT22;32377;52.182;5.398;2023-04-25T01:30:00;5.50;99.90
46652;DHT22;32377;52.182;5.398;2023-04-25T01:32:26;5.50;99.90
46652;DHT22;32377;52.182;5.398;2023-04-25T01:34:52;5.40;99.90
46652;DHT22;32377;52.182;5.398;2023-04-25T01:37:18;5.30;99.90
46652;DHT22;32377;52.182;5.398;2023-04-25T01:39:43;5.30;99.90
46652;DHT22;32377;52.182;5.398;2023-04-25T01:42:09;5.20;99.90
46652;DHT22;32377;52.182;5.398;2023-04-25T01:44:35;5.20;99.90
46652;DHT22;32377;52.182;5.398;2023-04-25T01:47:01;5.20;99.90
46652;DHT22;32377;52.182;5.398;2023-04-25T01:49:26;5.20;99.90
46652;DHT22;32377;52.182;5.398;2023-04-25T01:51:52;5.10;99.90
46652;DHT22;32377;52.182;5.398;2023-04-25T01:54:18;5.10;99.90
46652;DHT22;32377;52.182;5.398;2023-04-25T01:56:50;5.10;99.90
46652;DHT22;32377;52.182;5.398;2023-04-25T01:59:15;5.10;99.90
46652;DHT22;32377;52.182;5.398;2023-04-25T02:01:41;5.00;99.90
46652;DHT22;32377;52.182;5.398;2023-04-25T02:04:06;5.00;99.90
46652;DHT22;32377;52.182;5.398;2023-04-25T02:06:32;5.00;99.90
46652;DHT22;32377;52.182;5.398;2023-04-25T02:08:57;5.00;99.90
46652;DHT22;32377;52.182;5.398;2023-04-25T02:11:23;5.00;99.90
46652;DHT22;32377;52.182;5.398;2023-04-25T02:13:49;4.90;99.90
46652;DHT22;32377;52.182;5.398;2023-04-25T02:16:14;4.90;99.90
46652;DHT22;32377;52.182;5.398;2023-04-25T02:18:40;4.80;99.90
46652;DHT22;32377;52.182;5.398;2023-04-25T02:21:06;4.70;99.90
46652;DHT22;32377;52.182;5.398;2023-04-25T02:23:32;4.70;99.90
46652;DHT22;32377;52.182;5.398;2023-04-25T02:25:57;4.70;99.90
46652;DHT22;32377;52.182;5.398;2023-04-25T02:28:24;4.60;99.90
46652;DHT22;32377;52.182;5.398;2023-04-25T02:30:51;4.60;99.90
46652;DHT22;32377;52.182;5.398;2023-04-25T02:33:17;4.60;99.90
46652;DHT22;32377;52.182;5.398;2023-04-25T02:35:42;4.60;99.90
46652;DHT22;32377;52.182;5.398;2023-04-25T02:38:08;4.60;99.90
46652;DHT22;32377;52.182;5.398;2023-04-25T02:40:34;4.60;99.90
46652;DHT22;32377;52.182;5.398;2023-04-25T02:42:59;4.60;99.90
46652;DHT22;32377;52.182;5.398;2023-04-25T02:45:25;4.60;99.90
46652;DHT22;32377;52.182;5.398;2023-04-25T02:47:50;4.60;99.90
46652;DHT22;32377;52.182;5.398;2023-04-25T02:50:16;4.60;99.90
46652;DHT22;32377;52.182;5.398;2023-04-25T02:52:43;4.60;99.90
46652;DHT22;32377;52.182;5.398;2023-04-25T02:55:09;4.60;99.90
46652;DHT22;32377;52.182;5.398;2023-04-25T02:57:36;4.60;99.90
46652;DHT22;32377;52.182;5.398;2023-04-25T03:00:01;4.70;99.90
46652;DHT22;32377;52.182;5.398;2023-04-25T03:02:27;4.70;99.90
46652;DHT22;32377;52.182;5.398;2023-04-25T03:04:52;4.70;99.90
46652;DHT22;32377;52.182;5.398;2023-04-25T03:07:19;4.60;99.90
46652;DHT22;32377;52.182;5.398;2023-04-25T03:09:44;4.60;99.90
46652;DHT22;32377;52.182;5.398;2023-04-25T03:12:10;4.60;99.90
46652;DHT22;32377;52.182;5.398;2023-04-25T03:14:35;4.50;99.90
46652;DHT22;32377;52.182;5.398;2023-04-25T03:17:01;4.50;99.90
46652;DHT22;32377;52.182;5.398;2023-04-25T03:19:26;4.50;99.90
46652;DHT22;32377;52.182;5.398;2023-04-25T03:21:52;4.50;99.90
46652;DHT22;32377;52.182;5.398;2023-04-25T03:24:18;4.60;99.90
46652;DHT22;32377;52.182;5.398;2023-04-25T03:26:44;4.60;99.90
46652;DHT22;32377;52.182;5.398;2023-04-25T03:29:09;4.60;99.90
46652;DHT22;32377;52.182;5.398;2023-04-25T03:31:35;4.60;99.90
46652;DHT22;32377;52.182;5.398;2023-04-25T03:34:00;4.60;99.90
46652;DHT22;32377;52.182;5.398;2023-04-25T03:36:26;4.60;99.90
46652;DHT22;32377;52.182;5.398;2023-04-25T03:38:52;4.60;99.90
46652;DHT22;32377;52.182;5.398;2023-04-25T03:41:17;4.70;99.90
46652;DHT22;32377;52.182;5.398;2023-04-25T03:43:43;4.70;99.90
46652;DHT22;32377;52.182;5.398;2023-04-25T03:46:08;4.80;99.90
46652;DHT22;32377;52.182;5.398;2023-04-25T03:48:34;4.80;99.90
46652;DHT22;32377;52.182;5.398;2023-04-25T03:50:59;4.80;99.90
46652;DHT22;32377;52.182;5.398;2023-04-25T03:53:25;4.80;99.90
46652;DHT22;32377;52.182;5.398;2023-04-25T03:59:18;4.90;99.90
46652;DHT22;32377;52.182;5.398;2023-04-25T04:01:44;4.90;99.90
46652;DHT22;32377;52.182;5.398;2023-04-25T04:04:09;4.90;99.90
46652;DHT22;32377;52.182;5.398;2023-04-25T04:06:35;4.90;99.90
46652;DHT22;32377;52.182;5.398;2023-04-25T04:09:02;4.90;99.90
46652;DHT22;32377;52.182;5.398;2023-04-25T04:11:28;5.00;99.90
46652;DHT22;32377;52.182;5.398;2023-04-25T04:13:54;5.00;99.90
46652;DHT22;32377;52.182;5.398;2023-04-25T04:16:19;5.10;99.90
46652;DHT22;32377;52.182;5.398;2023-04-25T04:18:46;5.20;99.90
46652;DHT22;32377;52.182;5.398;2023-04-25T04:21:11;5.10;99.90
46652;DHT22;32377;52.182;5.398;2023-04-25T04:23:37;5.20;99.90
46652;DHT22;32377;52.182;5.398;2023-04-25T04:26:03;5.20;99.90
46652;DHT22;32377;52.182;5.398;2023-04-25T04:28:28;5.20;99.90
46652;DHT22;32377;52.182;5.398;2023-04-25T04:30:55;5.20;99.90
46652;DHT22;32377;52.182;5.398;2023-04-25T04:33:20;5.20;99.90
46652;DHT22;32377;52.182;5.398;2023-04-25T04:35:46;5.20;99.90
46652;DHT22;32377;52.182;5.398;2023-04-25T04:38:13;5.10;99.90
46652;DHT22;32377;52.182;5.398;2023-04-25T04:40:40;5.20;99.90
46652;DHT22;32377;52.182;5.398;2023-04-25T04:43:08;5.20;99.90
46652;DHT22;32377;52.182;5.398;2023-04-25T04:45:36;5.20;99.90
46652;DHT22;32377;52.182;5.398;2023-04-25T04:48:05;5.20;99.90
46652;DHT22;32377;52.182;5.398;2023-04-25T04:50:31;5.20;99.90
46652;DHT22;32377;52.182;5.398;2023-04-25T04:52:58;5.20;99.90
46652;DHT22;32377;52.182;5.398;2023-04-25T04:55:23;5.20;99.90
46652;DHT22;32377;52.182;5.398;2023-04-25T04:57:49;5.20;99.90
46652;DHT22;32377;52.182;5.398;2023-04-25T05:00:15;5.30;99.90
46652;DHT22;32377;52.182;5.398;2023-04-25T05:02:41;5.30;99.90
46652;DHT22;32377;52.182;5.398;2023-04-25T05:05:07;5.30;99.90
46652;DHT22;32377;52.182;5.398;2023-04-25T05:07:33;5.40;99.90
46652;DHT22;32377;52.182;5.398;2023-04-25T05:09:59;5.40;99.90
46652;DHT22;32377;52.182;5.398;2023-04-25T05:12:25;5.50;99.90
46652;DHT22;32377;52.182;5.398;2023-04-25T05:14:50;5.40;99.90
46652;DHT22;32377;52.182;5.398;2023-04-25T05:17:16;5.40;99.90
46652;DHT22;32377;52.182;5.398;2023-04-25T05:19:42;5.50;99.90
46652;DHT22;32377;52.182;5.398;2023-04-25T05:22:07;5.50;99.90
46652;DHT22;32377;52.182;5.398;2023-04-25T05:24:33;5.50;99.90
46652;DHT22;32377;52.182;5.398;2023-04-25T05:26:59;5.50;99.90
46652;DHT22;32377;52.182;5.398;2023-04-25T05:29:24;5.60;99.90
46652;DHT22;32377;52.182;5.398;2023-04-25T05:31:50;5.60;99.90
46652;DHT22;32377;52.182;5.398;2023-04-25T05:34:15;5.60;99.90
46652;DHT22;32377;52.182;5.398;2023-04-25T05:36:42;5.60;99.90
46652;DHT22;32377;52.182;5.398;2023-04-25T05:39:07;5.70;99.90
46652;DHT22;32377;52.182;5.398;2023-04-25T05:41:34;5.70;99.90
46652;DHT22;32377;52.182;5.398;2023-04-25T05:43:59;5.70;99.90
46652;DHT22;32377;52.182;5.398;2023-04-25T05:46:25;5.80;99.90
46652;DHT22;32377;52.182;5.398;2023-04-25T05:48:51;5.80;99.90
46652;DHT22;32377;52.182;5.398;2023-04-25T05:51:16;5.90;99.90
46652;DHT22;32377;52.182;5.398;2023-04-25T05:53:43;5.90;99.90
46652;DHT22;32377;52.182;5.398;2023-04-25T05:56:09;6.00;99.90
46652;DHT22;32377;52.182;5.398;2023-04-25T05:58:35;6.00;99.90
46652;DHT22;32377;52.182;5.398;2023-04-25T06:01:01;6.00;99.90
46652;DHT22;32377;52.182;5.398;2023-04-25T06:03:26;6.10;99.90
46652;DHT22;32377;52.182;5.398;2023-04-25T06:05:52;6.20;99.90
46652;DHT22;32377;52.182;5.398;2023-04-25T06:08:18;6.30;99.90
46652;DHT22;32377;52.182;5.398;2023-04-25T06:10:44;6.40;99.90
46652;DHT22;32377;52.182;5.398;2023-04-25T06:13:10;6.40;99.90
46652;DHT22;32377;52.182;5.398;2023-04-25T06:15:35;6.50;99.90
46652;DHT22;32377;52.182;5.398;2023-04-25T06:18:01;6.60;99.90
46652;DHT22;32377;52.182;5.398;2023-04-25T06:20:27;6.80;99.90
46652;DHT22;32377;52.182;5.398;2023-04-25T06:22:52;6.90;99.90
46652;DHT22;32377;52.182;5.398;2023-04-25T06:25:18;7.10;99.90
46652;DHT22;32377;52.182;5.398;2023-04-25T06:27:44;7.10;99.90
46652;DHT22;32377;52.182;5.398;2023-04-25T06:30:09;7.10;99.90
46652;DHT22;32377;52.182;5.398;2023-04-25T06:32:37;7.20;99.90
46652;DHT22;32377;52.182;5.398;2023-04-25T06:35:03;7.10;99.90
46652;DHT22;32377;52.182;5.398;2023-04-25T06:37:29;7.10;99.90
46652;DHT22;32377;52.182;5.398;2023-04-25T06:39:55;7.10;99.90
46652;DHT22;32377;52.182;5.398;2023-04-25T06:42:21;7.10;99.90
46652;DHT22;32377;52.182;5.398;2023-04-25T06:44:46;7.10;99.90
46652;DHT22;32377;52.182;5.398;2023-04-25T06:47:12;7.10;99.90
46652;DHT22;32377;52.182;5.398;2023-04-25T06:49:37;7.00;99.90
46652;DHT22;32377;52.182;5.398;2023-04-25T06:52:03;7.10;99.90
46652;DHT22;32377;52.182;5.398;2023-04-25T06:54:29;7.10;99.90
46652;DHT22;32377;52.182;5.398;2023-04-25T06:56:55;7.20;99.90
46652;DHT22;32377;52.182;5.398;2023-04-25T06:59:21;7.20;99.90
46652;DHT22;32377;52.182;5.398;2023-04-25T07:01:47;7.30;99.90
46652;DHT22;32377;52.182;5.398;2023-04-25T07:04:13;7.40;99.90
46652;DHT22;32377;52.182;5.398;2023-04-25T07:06:38;7.50;99.90
46652;DHT22;32377;52.182;5.398;2023-04-25T07:09:08;7.50;99.90
46652;DHT22;32377;52.182;5.398;2023-04-25T07:11:35;7.50;99.90
46652;DHT22;32377;52.182;5.398;2023-04-25T07:14:01;7.40;99.90
46652;DHT22;32377;52.182;5.398;2023-04-25T07:16:27;7.50;99.90
46652;DHT22;32377;52.182;5.398;2023-04-25T07:18:53;7.80;99.90
46652;DHT22;32377;52.182;5.398;2023-04-25T07:21:18;8.00;99.90
46652;DHT22;32377;52.182;5.398;2023-04-25T07:23:44;7.90;99.90
46652;DHT22;32377;52.182;5.398;2023-04-25T07:26:10;8.20;99.90
46652;DHT22;32377;52.182;5.398;2023-04-25T07:28:35;8.10;99.90
46652;DHT22;32377;52.182;5.398;2023-04-25T07:31:01;8.20;99.90
46652;DHT22;32377;52.182;5.398;2023-04-25T07:33:27;8.20;99.90
46652;DHT22;32377;52.182;5.398;2023-04-25T07:35:53;8.30;99.90
46652;DHT22;32377;52.182;5.398;2023-04-25T07:38:18;8.40;99.90
46652;DHT22;32377;52.182;5.398;2023-04-25T07:40:44;8.40;99.90
46652;DHT22;32377;52.182;5.398;2023-04-25T07:43:10;8.20;99.90
46652;DHT22;32377;52.182;5.398;2023-04-25T07:45:39;8.10;99.90
46652;DHT22;32377;52.182;5.398;2023-04-25T07:48:05;8.10;99.90
46652;DHT22;32377;52.182;5.398;2023-04-25T07:50:31;8.10;99.90
46652;DHT22;32377;52.182;5.398;2023-04-25T07:52:56;8.10;99.90
46652;DHT22;32377;52.182;5.398;2023-04-25T07:55:22;8.10;99.90
46652;DHT22;32377;52.182;5.398;2023-04-25T07:57:47;8.10;99.90
46652;DHT22;32377;52.182;5.398;2023-04-25T08:00:13;8.10;99.90
46652;DHT22;32377;52.182;5.398;2023-04-25T08:02:40;8.40;99.90
46652;DHT22;32377;52.182;5.398;2023-04-25T08:05:06;8.50;99.90
46652;DHT22;32377;52.182;5.398;2023-04-25T08:07:33;8.70;99.90
46652;DHT22;32377;52.182;5.398;2023-04-25T08:10:00;8.70;99.90
46652;DHT22;32377;52.182;5.398;2023-04-25T08:12:26;8.60;99.90
46652;DHT22;32377;52.182;5.398;2023-04-25T08:14:51;8.30;99.90
46652;DHT22;32377;52.182;5.398;2023-04-25T08:17:17;7.60;99.90
46652;DHT22;32377;52.182;5.398;2023-04-25T08:19:42;7.40;99.90
46652;DHT22;32377;52.182;5.398;2023-04-25T08:22:08;7.20;99.90
46652;DHT22;32377;52.182;5.398;2023-04-25T08:24:34;7.10;99.90
46652;DHT22;32377;52.182;5.398;2023-04-25T08:26:59;7.20;99.90
46652;DHT22;32377;52.182;5.398;2023-04-25T08:29:25;7.30;99.90
46652;DHT22;32377;52.182;5.398;2023-04-25T08:31:51;7.30;99.90
46652;DHT22;32377;52.182;5.398;2023-04-25T08:34:18;7.40;99.90
46652;DHT22;32377;52.182;5.398;2023-04-25T08:36:44;7.60;99.90
46652;DHT22;32377;52.182;5.398;2023-04-25T08:39:10;7.70;99.90
46652;DHT22;32377;52.182;5.398;2023-04-25T08:41:39;7.70;99.90
46652;DHT22;32377;52.182;5.398;2023-04-25T08:44:07;7.70;99.90
46652;DHT22;32377;52.182;5.398;2023-04-25T08:46:35;7.70;99.90
46652;DHT22;32377;52.182;5.398;2023-04-25T08:49:02;7.80;99.90
46652;DHT22;32377;52.182;5.398;2023-04-25T08:51:32;7.80;99.90
46652;DHT22;32377;52.182;5.398;2023-04-25T08:54:09;7.90;99.90
46652;DHT22;32377;52.182;5.398;2023-04-25T08:56:36;8.10;99.90
46652;DHT22;32377;52.182;5.398;2023-04-25T08:59:02;8.40;99.90
46652;DHT22;32377;52.182;5.398;2023-04-25T09:01:28;8.60;99.90
46652;DHT22;32377;52.182;5.398;2023-04-25T09:03:54;8.60;99.90
46652;DHT22;32377;52.182;5.398;2023-04-25T09:06:19;8.90;99.90
46652;DHT22;32377;52.182;5.398;2023-04-25T09:08:45;8.80;99.90
46652;DHT22;32377;52.182;5.398;2023-04-25T09:11:12;8.70;99.90
46652;DHT22;32377;52.182;5.398;2023-04-25T09:13:38;8.60;99.90
46652;DHT22;32377;52.182;5.398;2023-04-25T09:16:04;8.60;99.90
46652;DHT22;32377;52.182;5.398;2023-04-25T09:18:32;8.60;99.90
46652;DHT22;32377;52.182;5.398;2023-04-25T09:21:11;8.80;99.90
46652;DHT22;32377;52.182;5.398;2023-04-25T09:23:48;9.00;99.90
46652;DHT22;32377;52.182;5.398;2023-04-25T09:26:19;9.10;99.90
46652;DHT22;32377;52.182;5.398;2023-04-25T09:28:45;9.10;99.90
46652;DHT22;32377;52.182;5.398;2023-04-25T09:31:21;8.90;99.90
46652;DHT22;32377;52.182;5.398;2023-04-25T09:33:48;8.90;99.90
46652;DHT22;32377;52.182;5.398;2023-04-25T09:36:14;8.50;99.90
46652;DHT22;32377;52.182;5.398;2023-04-25T09:38:41;8.10;99.90
46652;DHT22;32377;52.182;5.398;2023-04-25T09:41:08;7.90;99.90
46652;DHT22;32377;52.182;5.398;2023-04-25T09:43:35;7.60;99.90
46652;DHT22;32377;52.182;5.398;2023-04-25T09:46:00;7.30;99.90
46652;DHT22;32377;52.182;5.398;2023-04-25T09:48:27;7.50;99.90
46652;DHT22;32377;52.182;5.398;2023-04-25T09:51:13;7.60;99.90
46652;DHT22;32377;52.182;5.398;2023-04-25T09:53:46;7.80;99.90
46652;DHT22;32377;52.182;5.398;2023-04-25T09:59:20;8.10;99.90
46652;DHT22;32377;52.182;5.398;2023-04-25T10:01:49;8.20;99.90
46652;DHT22;32377;52.182;5.398;2023-04-25T10:04:19;8.50;99.90
46652;DHT22;32377;52.182;5.398;2023-04-25T10:06:48;8.70;99.90
46652;DHT22;32377;52.182;5.398;2023-04-25T10:09:15;8.80;99.90
46652;DHT22;32377;52.182;5.398;2023-04-25T10:11:41;9.00;99.90
46652;DHT22;32377;52.182;5.398;2023-04-25T10:14:07;9.00;99.90
46652;DHT22;32377;52.182;5.398;2023-04-25T10:16:33;9.10;99.90
46652;DHT22;32377;52.182;5.398;2023-04-25T10:18:59;9.10;99.90
46652;DHT22;32377;52.182;5.398;2023-04-25T10:21:26;9.20;99.90
46652;DHT22;32377;52.182;5.398;2023-04-25T10:23:53;9.50;99.90
46652;DHT22;32377;52.182;5.398;2023-04-25T10:26:20;9.60;99.90
46652;DHT22;32377;52.182;5.398;2023-04-25T10:28:59;9.80;99.90
46652;DHT22;32377;52.182;5.398;2023-04-25T10:31:26;9.70;99.90
46652;DHT22;32377;52.182;5.398;2023-04-25T10:33:53;9.80;99.90
46652;DHT22;32377;52.182;5.398;2023-04-25T10:36:20;9.60;99.90
46652;DHT22;32377;52.182;5.398;2023-04-25T10:38:48;9.40;99.90
46652;DHT22;32377;52.182;5.398;2023-04-25T10:41:17;9.40;99.90
46652;DHT22;32377;52.182;5.398;2023-04-25T10:43:47;9.50;99.90
46652;DHT22;32377;52.182;5.398;2023-04-25T10:46:22;9.70;99.90
46652;DHT22;32377;52.182;5.398;2023-04-25T10:51:21;9.90;99.90
46652;DHT22;32377;52.182;5.398;2023-04-25T10:56:33;9.60;99.90
46652;DHT22;32377;52.182;5.398;2023-04-25T10:59:13;10.00;99.90
46652;DHT22;32377;52.182;5.398;2023-04-25T11:01:43;10.00;99.90
46652;DHT22;32377;52.182;5.398;2023-04-25T11:04:29;10.10;99.90
46652;DHT22;32377;52.182;5.398;2023-04-25T11:07:50;9.70;99.90
46652;DHT22;32377;52.182;5.398;2023-04-25T11:09:56;8.60;99.90
46652;DHT22;32377;52.182;5.398;2023-04-25T11:12:21;7.60;99.90
46652;DHT22;32377;52.182;5.398;2023-04-25T11:14:49;7.10;99.90
46652;DHT22;32377;52.182;5.398;2023-04-25T11:17:15;6.90;99.90
46652;DHT22;32377;52.182;5.398;2023-04-25T11:19:41;6.50;99.90
46652;DHT22;32377;52.182;5.398;2023-04-25T11:22:06;6.50;99.90
46652;DHT22;32377;52.182;5.398;2023-04-25T11:24:35;6.20;99.90
46652;DHT22;32377;52.182;5.398;2023-04-25T11:27:02;6.30;99.90
46652;DHT22;32377;52.182;5.398;2023-04-25T11:29:30;6.40;99.90
46652;DHT22;32377;52.182;5.398;2023-04-25T11:31:56;6.60;99.90
46652;DHT22;32377;52.182;5.398;2023-04-25T11:34:30;6.80;99.90
46652;DHT22;32377;52.182;5.398;2023-04-25T11:36:56;7.00;99.90
46652;DHT22;32377;52.182;5.398;2023-04-25T11:39:24;7.20;99.90
46652;DHT22;32377;52.182;5.398;2023-04-25T11:41:50;7.50;99.90
46652;DHT22;32377;52.182;5.398;2023-04-25T11:44:17;7.70;99.90
46652;DHT22;32377;52.182;5.398;2023-04-25T11:46:43;8.00;99.90
46652;DHT22;32377;52.182;5.398;2023-04-25T11:49:09;8.40;99.90
46652;DHT22;32377;52.182;5.398;2023-04-25T11:51:39;8.50;99.90
46652;DHT22;32377;52.182;5.398;2023-04-25T11:54:05;8.60;99.90
46652;DHT22;32377;52.182;5.398;2023-04-25T11:56:31;8.60;99.90
46652;DHT22;32377;52.182;5.398;2023-04-25T11:59:02;8.50;99.90
46652;DHT22;32377;52.182;5.398;2023-04-25T12:01:32;8.50;99.90
46652;DHT22;32377;52.182;5.398;2023-04-25T12:04:10;8.90;99.90
46652;DHT22;32377;52.182;5.398;2023-04-25T12:06:39;9.20;99.90
46652;DHT22;32377;52.182;5.398;2023-04-25T12:09:12;9.30;99.90
46652;DHT22;32377;52.182;5.398;2023-04-25T12:11:42;9.00;99.90
46652;DHT22;32377;52.182;5.398;2023-04-25T12:14:09;8.90;99.90
46652;DHT22;32377;52.182;5.398;2023-04-25T12:16:43;8.90;99.90
46652;DHT22;32377;52.182;5.398;2023-04-25T12:19:09;9.20;99.90
46652;DHT22;32377;52.182;5.398;2023-04-25T12:21:35;9.10;99.90
46652;DHT22;32377;52.182;5.398;2023-04-25T12:26:53;8.90;99.90
46652;DHT22;32377;52.182;5.398;2023-04-25T12:29:22;8.80;99.90
46652;DHT22;32377;52.182;5.398;2023-04-25T12:31:49;8.90;99.90
46652;DHT22;32377;52.182;5.398;2023-04-25T12:34:15;9.10;99.90
46652;DHT22;32377;52.182;5.398;2023-04-25T12:36:41;9.40;99.90
46652;DHT22;32377;52.182;5.398;2023-04-25T12:39:07;9.80;99.90
46652;DHT22;32377;52.182;5.398;2023-04-25T12:41:36;9.70;99.90
46652;DHT22;32377;52.182;5.398;2023-04-25T12:44:02;9.80;99.90
46652;DHT22;32377;52.182;5.398;2023-04-25T12:46:28;9.90;99.90
46652;DHT22;32377;52.182;5.398;2023-04-25T12:48:54;9.90;99.90
46652;DHT22;32377;52.182;5.398;2023-04-25T12:51:20;9.90;99.90
46652;DHT22;32377;52.182;5.398;2023-04-25T12:53:46;10.00;99.90
46652;DHT22;32377;52.182;5.398;2023-04-25T12:56:11;10.20;99.90
46652;DHT22;32377;52.182;5.398;2023-04-25T12:58:37;10.50;99.90
46652;DHT22;32377;52.182;5.398;2023-04-25T13:01:03;10.50;99.90
46652;DHT22;32377;52.182;5.398;2023-04-25T13:03:29;10.60;99.90
46652;DHT22;32377;52.182;5.398;2023-04-25T13:05:54;10.60;99.90
46652;DHT22;32377;52.182;5.398;2023-04-25T13:08:21;10.60;99.90
46652;DHT22;32377;52.182;5.398;2023-04-25T13:10:47;10.60;99.90
46652;DHT22;32377;52.182;5.398;2023-04-25T13:13:13;10.40;99.90
46652;DHT22;32377;52.182;5.398;2023-04-25T13:15:39;10.60;99.90
46652;DHT22;32377;52.182;5.398;2023-04-25T13:18:05;10.80;99.90
46652;DHT22;32377;52.182;5.398;2023-04-25T13:20:33;10.40;99.90
46652;DHT22;32377;52.182;5.398;2023-04-25T13:22:59;9.80;99.90
46652;DHT22;32377;52.182;5.398;2023-04-25T13:25:25;9.70;99.90
46652;DHT22;32377;52.182;5.398;2023-04-25T13:27:53;10.00;99.90
46652;DHT22;32377;52.182;5.398;2023-04-25T13:30:19;10.20;99.90
46652;DHT22;32377;52.182;5.398;2023-04-25T13:32:44;10.10;99.90
46652;DHT22;32377;52.182;5.398;2023-04-25T13:35:12;10.20;99.90
46652;DHT22;32377;52.182;5.398;2023-04-25T13:37:38;10.20;99.90
46652;DHT22;32377;52.182;5.398;2023-04-25T13:40:06;10.00;99.90
46652;DHT22;32377;52.182;5.398;2023-04-25T13:42:34;10.10;99.90
46652;DHT22;32377;52.182;5.398;2023-04-25T13:45:00;10.00;99.90
46652;DHT22;32377;52.182;5.398;2023-04-25T13:47:27;10.10;99.90
46652;DHT22;32377;52.182;5.398;2023-04-25T13:49:53;10.00;99.90
46652;DHT22;32377;52.182;5.398;2023-04-25T13:52:18;10.00;99.90
46652;DHT22;32377;52.182;5.398;2023-04-25T13:54:44;9.80;99.90
46652;DHT22;32377;52.182;5.398;2023-04-25T13:57:10;9.80;99.90
46652;DHT22;32377;52.182;5.398;2023-04-25T13:59:37;9.60;99.90
46652;DHT22;32377;52.182;5.398;2023-04-25T14:02:02;9.20;99.90
46652;DHT22;32377;52.182;5.398;2023-04-25T14:04:28;8.80;99.90
46652;DHT22;32377;52.182;5.398;2023-04-25T14:06:54;8.50;99.90
46652;DHT22;32377;52.182;5.398;2023-04-25T14:09:20;8.60;99.90
46652;DHT22;32377;52.182;5.398;2023-04-25T14:11:51;9.10;99.90
46652;DHT22;32377;52.182;5.398;2023-04-25T14:14:17;9.20;99.90
46652;DHT22;32377;52.182;5.398;2023-04-25T14:16:43;9.50;99.90
46652;DHT22;32377;52.182;5.398;2023-04-25T14:19:09;9.90;99.90
46652;DHT22;32377;52.182;5.398;2023-04-25T14:21:34;10.40;99.90
46652;DHT22;32377;52.182;5.398;2023-04-25T14:24:00;10.60;99.90
46652;DHT22;32377;52.182;5.398;2023-04-25T14:26:26;10.50;99.90
46652;DHT22;32377;52.182;5.398;2023-04-25T14:28:52;10.30;99.90
46652;DHT22;32377;52.182;5.398;2023-04-25T14:31:17;9.90;99.90
46652;DHT22;32377;52.182;5.398;2023-04-25T14:33:43;9.80;99.90
46652;DHT22;32377;52.182;5.398;2023-04-25T14:36:09;9.50;99.90
46652;DHT22;32377;52.182;5.398;2023-04-25T14:38:36;9.40;99.90
46652;DHT22;32377;52.182;5.398;2023-04-25T14:41:02;9.40;99.90
46652;DHT22;32377;52.182;5.398;2023-04-25T14:43:27;9.50;99.90
46652;DHT22;32377;52.182;5.398;2023-04-25T14:45:53;9.60;99.90
46652;DHT22;32377;52.182;5.398;2023-04-25T14:48:19;9.90;99.90
46652;DHT22;32377;52.182;5.398;2023-04-25T14:50:45;10.00;99.90
46652;DHT22;32377;52.182;5.398;2023-04-25T14:53:11;10.10;99.90
46652;DHT22;32377;52.182;5.398;2023-04-25T14:55:38;10.20;99.90
46652;DHT22;32377;52.182;5.398;2023-04-25T14:58:03;10.10;99.90
46652;DHT22;32377;52.182;5.398;2023-04-25T15:00:29;10.10;99.90
46652;DHT22;32377;52.182;5.398;2023-04-25T15:02:56;10.30;99.90
46652;DHT22;32377;52.182;5.398;2023-04-25T15:05:22;10.20;99.90
46652;DHT22;32377;52.182;5.398;2023-04-25T15:07:47;10.30;99.90
46652;DHT22;32377;52.182;5.398;2023-04-25T15:10:13;10.30;99.90
46652;DHT22;32377;52.182;5.398;2023-04-25T15:12:44;10.40;99.90
46652;DHT22;32377;52.182;5.398;2023-04-25T15:15:10;10.70;99.90
46652;DHT22;32377;52.182;5.398;2023-04-25T15:17:41;10.40;99.90
46652;DHT22;32377;52.182;5.398;2023-04-25T15:20:08;10.20;99.90
46652;DHT22;32377;52.182;5.398;2023-04-25T15:22:41;10.30;99.90
46652;DHT22;32377;52.182;5.398;2023-04-25T15:25:08;10.10;99.90
46652;DHT22;32377;52.182;5.398;2023-04-25T15:27:34;10.10;99.90
46652;DHT22;32377;52.182;5.398;2023-04-25T15:30:04;9.80;99.90
46652;DHT22;32377;52.182;5.398;2023-04-25T15:32:31;9.60;99.90
46652;DHT22;32377;52.182;5.398;2023-04-25T15:34:56;9.80;99.90
46652;DHT22;32377;52.182;5.398;2023-04-25T15:37:22;9.90;99.90
46652;DHT22;32377;52.182;5.398;2023-04-25T15:39:47;9.90;99.90
46652;DHT22;32377;52.182;5.398;2023-04-25T15:42:13;9.80;99.90
46652;DHT22;32377;52.182;5.398;2023-04-25T15:44:39;9.90;99.90
46652;DHT22;32377;52.182;5.398;2023-04-25T15:47:04;9.80;99.90
46652;DHT22;32377;52.182;5.398;2023-04-25T15:49:30;9.80;99.90
46652;DHT22;32377;52.182;5.398;2023-04-25T15:51:55;9.80;99.90
46652;DHT22;32377;52.182;5.398;2023-04-25T15:54:21;9.80;99.90
46652;DHT22;32377;52.182;5.398;2023-04-25T15:59:19;9.80;99.90